createdAt,value
2022-07-28T00:02:02.109Z,19.70
2022-07-28T00:04:31.419Z,19.70
2022-07-28T00:06:59.486Z,19.70
2022-07-28T00:09:29.284Z,19.60
2022-07-28T00:11:57.202Z,19.60
2022-07-28T00:14:25.457Z,19.60
2022-07-28T00:16:53.536Z,19.50
2022-07-28T00:19:21.492Z,19.50
2022-07-28T00:21:50.769Z,19.50
2022-07-28T00:24:18.671Z,19.40
2022-07-28T00:26:46.939Z,19.40
2022-07-28T00:29:14.876Z,19.30
2022-07-28T00:31:42.868Z,19.30
2022-07-28T00:34:12.388Z,19.20
2022-07-28T00:36:40.560Z,19.20
2022-07-28T00:39:10.419Z,19.20
2022-07-28T00:41:38.359Z,19.20
2022-07-28T00:44:07.777Z,19.10
2022-07-28T00:46:36.643Z,19.10
2022-07-28T00:49:05.191Z,19.10
2022-07-28T00:51:33.432Z,19.10
2022-07-28T00:54:01.641Z,19.10
2022-07-28T00:56:31.429Z,19.10
2022-07-28T00:58:59.295Z,19.00
2022-07-28T01:01:27.288Z,19.00
2022-07-28T01:03:57.227Z,19.00
2022-07-28T01:06:48.730Z,18.90
2022-07-28T01:09:27.425Z,18.90
2022-07-28T01:12:12.324Z,18.90
2022-07-28T01:14:45.835Z,18.80
2022-07-28T01:17:25.858Z,18.80
2022-07-28T01:20:05.907Z,18.80
2022-07-28T01:22:38.540Z,18.70
2022-07-28T01:25:17.759Z,18.70
2022-07-28T01:27:59.877Z,18.70
2022-07-28T01:30:40.302Z,18.70
2022-07-28T01:33:15.869Z,18.60
2022-07-28T01:35:47.361Z,18.60
2022-07-28T01:38:16.477Z,18.60
2022-07-28T01:40:46.400Z,18.50
2022-07-28T01:43:22.179Z,18.50
2022-07-28T01:45:51.509Z,18.50
2022-07-28T01:48:21.590Z,18.50
2022-07-28T01:50:51.994Z,18.50
2022-07-28T01:53:21.386Z,18.50
2022-07-28T01:55:51.077Z,18.40
2022-07-28T01:58:21.330Z,18.40
2022-07-28T02:00:52.209Z,18.40
2022-07-28T02:03:23.157Z,18.30
2022-07-28T02:05:53.592Z,18.30
2022-07-28T02:08:24.474Z,18.20
2022-07-28T02:11:11.597Z,18.20
2022-07-28T02:13:40.355Z,18.20
2022-07-28T02:16:12.173Z,18.20
2022-07-28T02:18:41.523Z,18.10
2022-07-28T02:21:10.780Z,18.10
2022-07-28T02:23:40.101Z,18.10
2022-07-28T02:26:12.013Z,18.10
2022-07-28T02:28:43.037Z,18.10
2022-07-28T02:31:18.506Z,18.00
2022-07-28T02:33:58.776Z,18.00
2022-07-28T02:36:32.489Z,18.00
2022-07-28T02:39:06.305Z,18.00
2022-07-28T02:41:39.764Z,17.90
2022-07-28T02:44:16.071Z,17.90
2022-07-28T02:46:47.582Z,17.90
2022-07-28T02:49:20.248Z,17.90
2022-07-28T02:51:50.486Z,17.90
2022-07-28T02:54:20.586Z,17.80
2022-07-28T02:56:53.524Z,17.80
2022-07-28T02:59:23.244Z,17.80
2022-07-28T03:01:53.719Z,17.80
2022-07-28T03:04:37.328Z,17.70
2022-07-28T03:07:05.689Z,17.80
2022-07-28T03:09:41.795Z,17.70
2022-07-28T03:12:10.285Z,17.70
2022-07-28T03:14:38.417Z,17.60
2022-07-28T03:17:07.985Z,17.60
2022-07-28T03:19:36.622Z,17.60
2022-07-28T03:22:04.651Z,17.60
2022-07-28T03:24:37.685Z,17.60
2022-07-28T03:27:12.904Z,17.60
2022-07-28T03:29:42.474Z,17.60
2022-07-28T03:32:12.142Z,17.60
2022-07-28T03:34:40.382Z,17.50
2022-07-28T03:37:13.384Z,17.50
2022-07-28T03:39:47.607Z,17.50
2022-07-28T03:42:17.698Z,17.50
2022-07-28T03:44:47.613Z,17.40
2022-07-28T03:47:21.886Z,17.40
2022-07-28T03:49:49.915Z,17.40
2022-07-28T03:52:18.414Z,17.40
2022-07-28T03:54:46.688Z,17.40
2022-07-28T03:57:15.209Z,17.30
2022-07-28T03:59:43.158Z,17.30
2022-07-28T04:02:11.204Z,17.30
2022-07-28T04:04:40.480Z,17.30
2022-07-28T04:07:08.340Z,17.30
2022-07-28T04:09:36.213Z,17.30
2022-07-28T04:12:04.131Z,17.30
2022-07-28T04:14:32.037Z,17.30
2022-07-28T04:17:00.086Z,17.30
2022-07-28T04:19:28.141Z,17.30
2022-07-28T04:21:57.349Z,17.30
2022-07-28T04:24:25.273Z,17.30
2022-07-28T04:26:53.200Z,17.40
2022-07-28T04:29:23.306Z,17.40
2022-07-28T04:31:55.305Z,17.40
2022-07-28T04:34:24.470Z,17.50
2022-07-28T04:36:53.041Z,17.50
2022-07-28T04:39:22.246Z,17.60
2022-07-28T04:41:50.918Z,17.60
2022-07-28T04:44:18.802Z,17.60
2022-07-28T04:46:46.824Z,17.70
2022-07-28T04:49:14.994Z,17.70
2022-07-28T04:51:45.331Z,17.70
2022-07-28T04:54:13.593Z,17.80
2022-07-28T04:56:44.858Z,17.80
2022-07-28T04:59:12.977Z,17.80
2022-07-28T05:01:44.152Z,17.90
2022-07-28T05:04:12.360Z,17.90
2022-07-28T05:06:40.457Z,18.00
2022-07-28T05:09:08.388Z,18.00
2022-07-28T05:11:36.249Z,18.10
2022-07-28T05:14:05.438Z,18.10
2022-07-28T05:16:33.442Z,18.20
2022-07-28T05:19:02.098Z,18.30
2022-07-28T05:21:30.289Z,18.40
2022-07-28T05:23:58.191Z,18.50
2022-07-28T05:26:26.826Z,18.60
2022-07-28T05:28:54.721Z,18.80
2022-07-28T05:31:24.066Z,18.90
2022-07-28T05:33:51.993Z,19.10
2022-07-28T05:36:20.313Z,19.20
2022-07-28T05:38:48.204Z,19.40
2022-07-28T05:41:16.177Z,19.50
2022-07-28T05:43:44.070Z,19.60
2022-07-28T05:46:12.012Z,19.70
2022-07-28T05:48:41.367Z,19.90
2022-07-28T05:51:09.282Z,20.00
2022-07-28T05:53:37.190Z,20.10
2022-07-28T05:56:05.419Z,20.30
2022-07-28T05:58:33.333Z,20.40
2022-07-28T06:01:02.362Z,20.50
2022-07-28T06:03:33.589Z,20.60
2022-07-28T06:06:15.652Z,20.70
2022-07-28T06:08:45.573Z,20.80
2022-07-28T06:11:17.988Z,20.80
2022-07-28T06:13:50.485Z,20.90
2022-07-28T06:16:19.700Z,21.00
2022-07-28T06:18:47.686Z,21.00
2022-07-28T06:21:16.938Z,21.10
2022-07-28T06:23:45.783Z,21.10
2022-07-28T06:26:13.708Z,21.20
2022-07-28T06:28:41.598Z,21.20
2022-07-28T06:31:09.545Z,21.30
2022-07-28T06:33:37.915Z,21.40
2022-07-28T06:36:06.086Z,21.50
2022-07-28T06:38:35.339Z,21.60
2022-07-28T06:41:03.705Z,21.70
2022-07-28T06:43:34.163Z,21.70
2022-07-28T06:46:04.819Z,21.80
2022-07-28T06:48:32.697Z,21.90
2022-07-28T06:51:00.800Z,22.00
2022-07-28T06:53:33.567Z,22.10
2022-07-28T06:56:04.586Z,22.20
2022-07-28T06:58:33.213Z,22.50
2022-07-28T07:01:02.505Z,22.80
2022-07-28T07:03:30.579Z,23.10
2022-07-28T07:05:58.504Z,23.40
2022-07-28T07:08:26.488Z,23.70
2022-07-28T07:10:55.119Z,24.00
2022-07-28T07:13:24.811Z,24.20
2022-07-28T07:15:52.922Z,24.40
2022-07-28T07:18:20.821Z,24.60
2022-07-28T07:20:48.994Z,25.00
2022-07-28T07:23:16.925Z,26.00
2022-07-28T07:25:44.822Z,28.40
2022-07-28T07:28:12.725Z,28.40
2022-07-28T07:30:41.997Z,29.80
2022-07-28T07:33:10.593Z,31.40
2022-07-28T07:35:39.144Z,32.90
2022-07-28T07:38:07.112Z,34.40
2022-07-28T07:40:35.095Z,36.00
2022-07-28T07:45:31.274Z,39.20
2022-07-28T07:48:03.130Z,40.60
2022-07-28T07:50:31.413Z,41.90
2022-07-28T07:53:00.907Z,43.20
2022-07-28T07:55:34.458Z,44.90
2022-07-28T07:58:05.777Z,45.30
2022-07-28T08:00:34.018Z,46.40
2022-07-28T08:05:35.426Z,48.00
2022-07-28T08:08:05.843Z,48.90
2022-07-28T08:10:34.127Z,49.80
2022-07-28T08:17:59.908Z,51.10
2022-07-28T08:20:30.230Z,51.50
2022-07-28T08:22:58.876Z,51.90
2022-07-28T08:25:27.038Z,52.40
2022-07-28T08:30:27.520Z,53.00
2022-07-28T08:32:59.956Z,53.40
2022-07-28T08:35:33.752Z,53.50
2022-07-28T08:38:03.689Z,53.70
2022-07-28T08:40:32.786Z,53.90
2022-07-28T08:43:07.156Z,54.00
2022-07-28T08:45:37.255Z,54.10
2022-07-28T08:48:08.647Z,54.20
2022-07-28T08:50:39.250Z,54.20
2022-07-28T08:53:08.531Z,54.40
2022-07-28T08:55:37.345Z,54.60
2022-07-28T08:58:05.338Z,54.60
2022-07-28T09:03:03.636Z,55.20
2022-07-28T09:05:32.544Z,55.30
2022-07-28T09:08:02.891Z,55.40
2022-07-28T09:10:31.072Z,55.50
2022-07-28T09:12:59.013Z,55.50
2022-07-28T09:15:27.073Z,55.50
2022-07-28T09:17:55.542Z,55.40
2022-07-28T09:20:24.682Z,55.20
2022-07-28T09:22:58.144Z,54.90
2022-07-28T09:25:28.044Z,54.60
2022-07-28T09:27:56.806Z,54.40
2022-07-28T09:30:32.577Z,54.00
2022-07-28T09:33:42.295Z,53.70
2022-07-28T09:36:02.141Z,53.30
2022-07-28T09:38:41.609Z,52.80
2022-07-28T09:41:11.028Z,51.40
2022-07-28T09:43:40.357Z,51.30
2022-07-28T09:48:51.160Z,49.10
2022-07-28T09:51:20.759Z,47.60
2022-07-28T09:53:49.072Z,47.10
2022-07-28T09:56:19.030Z,46.00
2022-07-28T09:58:57.941Z,45.20
2022-07-28T10:01:29.256Z,44.30
2022-07-28T10:06:37.727Z,42.50
2022-07-28T10:09:07.749Z,41.80
2022-07-28T10:11:41.525Z,41.20
2022-07-28T10:14:09.722Z,40.50
2022-07-28T10:16:43.430Z,40.00
2022-07-28T10:19:11.551Z,39.40
2022-07-28T10:21:44.149Z,38.90
2022-07-28T10:24:21.684Z,38.40
2022-07-28T10:26:53.441Z,38.00
2022-07-28T10:29:23.193Z,37.60
2022-07-28T10:31:53.477Z,37.20
2022-07-28T10:34:24.543Z,36.80
2022-07-28T10:36:55.298Z,36.50
2022-07-28T10:39:25.976Z,36.20
2022-07-28T10:41:57.326Z,36.00
2022-07-28T10:44:26.417Z,35.70
2022-07-28T10:46:55.646Z,35.50
2022-07-28T10:49:27.579Z,35.30
2022-07-28T10:52:08.973Z,35.20
2022-07-28T10:54:48.653Z,34.90
2022-07-28T10:57:19.055Z,34.80
2022-07-28T11:00:13.626Z,34.70
2022-07-28T11:02:51.404Z,34.50
2022-07-28T11:05:36.552Z,34.40
2022-07-28T11:08:07.511Z,34.30
2022-07-28T11:10:47.197Z,34.10
2022-07-28T11:13:33.004Z,34.00
2022-07-28T11:16:20.397Z,33.90
2022-07-28T11:19:36.806Z,33.90
2022-07-28T11:22:24.931Z,33.80
2022-07-28T11:25:19.945Z,33.70
2022-07-28T11:28:07.768Z,33.60
2022-07-28T11:30:54.594Z,33.60
2022-07-28T11:33:24.710Z,33.60
2022-07-28T11:35:58.175Z,33.60
2022-07-28T11:38:26.277Z,33.50
2022-07-28T11:40:56.034Z,33.50
2022-07-28T11:43:36.552Z,33.40
2022-07-28T11:46:36.081Z,33.40
2022-07-28T11:49:32.804Z,33.30
2022-07-28T11:52:21.289Z,33.20
2022-07-28T11:54:52.922Z,33.20
2022-07-28T11:57:24.359Z,33.10
2022-07-28T11:59:54.910Z,33.10
2022-07-28T12:02:27.557Z,33.00
2022-07-28T12:07:32.794Z,32.90
2022-07-28T12:10:00.992Z,32.90
2022-07-28T12:12:29.448Z,32.90
2022-07-28T12:15:02.064Z,32.80
2022-07-28T12:17:37.803Z,32.80
2022-07-28T12:20:13.391Z,32.70
2022-07-28T12:22:54.870Z,32.60
2022-07-28T12:25:22.825Z,32.60
2022-07-28T12:27:50.857Z,32.50
2022-07-28T12:30:26.481Z,32.50
2022-07-28T12:32:58.169Z,32.40
2022-07-28T12:35:27.121Z,32.40
2022-07-28T12:37:55.215Z,32.30
2022-07-28T12:40:27.348Z,32.30
2022-07-28T12:42:55.683Z,32.30
2022-07-28T12:45:23.798Z,32.30
2022-07-28T12:47:51.817Z,32.30
2022-07-28T12:50:21.886Z,32.30
2022-07-28T12:53:05.115Z,32.30
2022-07-28T12:55:33.054Z,32.20
2022-07-28T12:58:01.634Z,32.20
2022-07-28T13:00:31.989Z,32.20
2022-07-28T13:03:01.625Z,32.20
2022-07-28T13:05:56.538Z,32.20
2022-07-28T13:08:25.469Z,32.10
2022-07-28T13:10:58.917Z,32.10
2022-07-28T13:13:27.580Z,32.00
2022-07-28T13:16:15.560Z,32.00
2022-07-28T13:18:44.467Z,32.00
2022-07-28T13:21:15.086Z,32.00
2022-07-28T13:23:43.454Z,32.00
2022-07-28T13:26:11.414Z,31.90
2022-07-28T13:28:39.596Z,32.00
2022-07-28T13:31:07.614Z,31.90
2022-07-28T13:33:35.493Z,31.90
2022-07-28T13:36:03.498Z,31.90
2022-07-28T13:38:33.513Z,31.90
2022-07-28T13:41:01.466Z,31.90
2022-07-28T13:43:35.959Z,31.90
2022-07-28T13:46:05.316Z,31.90
2022-07-28T13:48:35.701Z,31.90
2022-07-28T13:51:03.734Z,31.90
2022-07-28T13:53:33.060Z,31.90
2022-07-28T13:56:01.187Z,31.90
2022-07-28T13:58:29.111Z,31.90
2022-07-28T14:00:57.745Z,31.80
2022-07-28T14:03:26.105Z,31.80
2022-07-28T14:05:54.180Z,31.80
2022-07-28T14:08:25.390Z,31.80
2022-07-28T14:10:58.990Z,31.80
2022-07-28T14:13:28.247Z,31.80
2022-07-28T14:16:02.468Z,31.80
2022-07-28T14:18:35.814Z,31.80
2022-07-28T14:21:04.750Z,31.80
2022-07-28T14:23:32.850Z,31.80
2022-07-28T14:26:25.312Z,31.80
2022-07-28T14:28:50.066Z,31.70
2022-07-28T14:31:18.098Z,31.70
2022-07-28T14:33:52.319Z,31.70
2022-07-28T14:36:22.354Z,31.70
2022-07-28T14:38:54.012Z,31.70
2022-07-28T14:41:24.958Z,31.70
2022-07-28T14:43:52.997Z,31.70
2022-07-28T14:46:22.088Z,31.70
2022-07-28T14:48:57.502Z,31.60
2022-07-28T14:51:25.446Z,31.70
2022-07-28T14:53:55.182Z,31.60
2022-07-28T14:56:24.472Z,31.60
2022-07-28T14:58:52.479Z,31.60
2022-07-28T15:01:20.451Z,31.60
2022-07-28T15:03:48.398Z,31.60
2022-07-28T15:06:16.314Z,31.60
2022-07-28T15:08:44.193Z,31.60
2022-07-28T15:11:12.065Z,31.60
2022-07-28T15:13:41.271Z,31.50
2022-07-28T15:16:09.681Z,31.50
2022-07-28T15:18:37.620Z,31.50
2022-07-28T15:21:08.109Z,31.50
2022-07-28T15:23:36.468Z,31.40
2022-07-28T15:26:04.346Z,31.40
2022-07-28T15:28:32.749Z,31.40
2022-07-28T15:31:02.178Z,31.40
2022-07-28T15:33:30.557Z,31.40
2022-07-28T15:36:00.674Z,31.40
2022-07-28T15:38:31.583Z,31.40
2022-07-28T15:41:00.227Z,31.40
2022-07-28T15:43:28.356Z,31.40
2022-07-28T15:45:57.478Z,31.40
2022-07-28T15:48:26.741Z,31.40
2022-07-28T15:50:54.654Z,31.40
2022-07-28T15:53:22.558Z,31.40
2022-07-28T15:55:51.657Z,31.40
2022-07-28T15:58:19.878Z,31.40
2022-07-28T16:00:47.839Z,31.40
2022-07-28T16:03:16.003Z,31.40
2022-07-28T16:05:49.393Z,31.40
2022-07-28T16:08:17.930Z,31.30
2022-07-28T16:10:46.155Z,31.30
2022-07-28T16:13:17.227Z,31.30
2022-07-28T16:15:50.873Z,31.30
2022-07-28T16:18:19.206Z,31.20
2022-07-28T16:20:48.539Z,31.20
2022-07-28T16:23:16.583Z,31.20
2022-07-28T16:25:45.242Z,31.20
2022-07-28T16:28:13.458Z,31.20
2022-07-28T16:30:41.438Z,31.20
2022-07-28T16:33:09.666Z,31.20
2022-07-28T16:35:37.573Z,31.20
2022-07-28T16:38:07.616Z,31.20
2022-07-28T16:40:35.537Z,31.10
2022-07-28T16:43:06.094Z,31.20
2022-07-28T16:45:37.073Z,31.20
2022-07-28T16:48:05.162Z,31.20
2022-07-28T16:50:33.665Z,31.20
2022-07-28T16:53:04.186Z,31.20
2022-07-28T16:55:33.448Z,31.30
2022-07-28T16:58:01.325Z,31.30
2022-07-28T17:00:29.997Z,31.30
2022-07-28T17:02:57.997Z,31.30
2022-07-28T17:05:25.912Z,31.30
2022-07-28T17:07:53.835Z,31.30
2022-07-28T17:10:27.536Z,31.30
2022-07-28T17:12:58.487Z,31.20
2022-07-28T17:15:26.639Z,31.20
2022-07-28T17:17:55.887Z,31.20
2022-07-28T17:20:25.273Z,31.10
2022-07-28T17:22:53.193Z,31.10
2022-07-28T17:28:10.532Z,31.10
2022-07-28T17:30:39.320Z,31.10
2022-07-28T17:33:08.867Z,31.10
2022-07-28T17:35:38.068Z,31.10
2022-07-28T17:38:09.093Z,31.00
2022-07-28T17:40:38.177Z,30.90
2022-07-28T17:43:06.190Z,30.90
2022-07-28T17:45:35.465Z,30.80
2022-07-28T17:48:03.356Z,30.80
2022-07-28T17:50:31.364Z,30.70
2022-07-28T17:52:59.381Z,30.60
2022-07-28T17:55:57.917Z,30.60
2022-07-28T17:58:27.976Z,30.50
2022-07-28T18:01:10.684Z,30.40
2022-07-28T18:03:58.756Z,30.40
2022-07-28T18:06:29.753Z,30.30
2022-07-28T18:08:58.821Z,30.20
2022-07-28T18:11:36.071Z,30.10
2022-07-28T18:14:05.657Z,30.10
2022-07-28T18:16:35.070Z,30.00
2022-07-28T18:19:03.111Z,29.90
2022-07-28T18:23:59.225Z,29.80
2022-07-28T18:26:27.145Z,29.70
2022-07-28T18:28:55.165Z,29.60
2022-07-28T18:31:23.276Z,29.60
2022-07-28T18:33:52.588Z,29.50
2022-07-28T18:36:20.479Z,29.50
2022-07-28T18:38:48.361Z,29.40
2022-07-28T18:41:16.306Z,29.30
2022-07-28T18:43:44.156Z,29.20
2022-07-28T18:46:12.121Z,29.10
2022-07-28T18:48:40.125Z,29.00
2022-07-28T18:51:09.578Z,28.90
2022-07-28T18:53:37.622Z,28.80
2022-07-28T18:56:05.989Z,28.60
2022-07-28T18:58:33.842Z,28.60
2022-07-28T19:01:01.762Z,28.40
2022-07-28T19:03:32.264Z,28.40
2022-07-28T19:06:00.179Z,28.30
2022-07-28T19:08:29.520Z,28.20
2022-07-28T19:10:57.440Z,28.20
2022-07-28T19:13:25.321Z,28.10
2022-07-28T19:15:53.286Z,28.00
2022-07-28T19:18:21.239Z,28.00
2022-07-28T19:20:49.144Z,27.90
2022-07-28T19:23:19.133Z,27.90
2022-07-28T19:25:48.355Z,27.90
2022-07-28T19:28:16.261Z,27.80
2022-07-28T19:30:45.108Z,27.80
2022-07-28T19:33:18.866Z,27.70
2022-07-28T19:35:47.077Z,27.70
2022-07-28T19:38:15.006Z,27.70
2022-07-28T19:40:43.256Z,27.70
2022-07-28T19:43:12.573Z,27.60
2022-07-28T19:45:40.547Z,27.60
2022-07-28T19:48:08.779Z,27.50
2022-07-28T19:50:37.102Z,27.50
2022-07-28T19:53:05.402Z,27.50
2022-07-28T19:55:36.158Z,27.40
2022-07-28T19:58:04.304Z,27.30
2022-07-28T20:00:34.090Z,27.30
2022-07-28T20:03:02.196Z,27.20
2022-07-28T20:05:30.281Z,27.20
2022-07-28T20:07:58.206Z,27.10
2022-07-28T20:10:26.102Z,27.10
2022-07-28T20:12:54.967Z,27.10
2022-07-28T20:15:23.056Z,27.00
2022-07-28T20:17:52.322Z,26.90
2022-07-28T20:20:20.578Z,26.90
2022-07-28T20:22:48.707Z,26.80
2022-07-28T20:25:16.710Z,26.70
2022-07-28T20:27:45.222Z,26.70
2022-07-28T20:30:14.582Z,26.60
2022-07-28T20:32:44.136Z,26.50
2022-07-28T20:35:13.776Z,26.50
2022-07-28T20:37:41.678Z,26.40
2022-07-28T20:40:11.866Z,26.40
2022-07-28T20:42:40.330Z,26.30
2022-07-28T20:45:08.919Z,26.20
2022-07-28T20:47:37.099Z,26.20
2022-07-28T20:50:06.992Z,26.10
2022-07-28T20:52:36.264Z,26.10
2022-07-28T20:55:04.421Z,26.00
2022-07-28T20:57:32.361Z,26.00
2022-07-28T21:00:00.475Z,25.90
2022-07-28T21:02:28.413Z,25.90
2022-07-28T21:04:56.370Z,25.80
2022-07-28T21:08:05.157Z,25.80
2022-07-28T21:10:13.702Z,25.70
2022-07-28T21:12:41.596Z,25.70
2022-07-28T21:15:10.886Z,25.60
2022-07-28T21:17:38.867Z,25.60
2022-07-28T21:20:07.645Z,25.50
2022-07-28T21:22:35.525Z,25.50
2022-07-28T21:25:03.470Z,25.50
2022-07-28T21:27:52.693Z,25.40
2022-07-28T21:30:19.761Z,25.40
2022-07-28T21:32:55.774Z,25.30
2022-07-28T21:35:23.743Z,25.20
2022-07-28T21:37:51.738Z,25.20
2022-07-28T21:40:19.656Z,25.20
2022-07-28T21:42:48.961Z,25.20
2022-07-28T21:45:16.857Z,25.10
2022-07-28T21:47:44.770Z,25.10
2022-07-28T21:50:13.147Z,25.00
2022-07-28T21:52:41.192Z,25.00
2022-07-28T21:55:10.331Z,25.00
2022-07-28T21:57:38.305Z,25.00
2022-07-28T22:00:10.982Z,25.00
2022-07-28T22:02:39.018Z,24.90
2022-07-28T22:05:09.551Z,24.90
2022-07-28T22:07:37.571Z,24.90
2022-07-28T22:10:06.445Z,24.90
2022-07-28T22:12:34.352Z,24.90
2022-07-28T22:15:02.264Z,24.90
2022-07-28T22:17:31.506Z,24.90
2022-07-28T22:20:00.496Z,24.90
2022-07-28T22:22:28.404Z,24.90
2022-07-28T22:24:56.317Z,24.80
2022-07-28T22:27:24.656Z,24.80
2022-07-28T22:29:52.960Z,24.80
2022-07-28T22:32:27.027Z,24.80
2022-07-28T22:34:58.754Z,24.80
2022-07-28T22:37:26.682Z,24.80
2022-07-28T22:39:55.684Z,24.80
2022-07-28T22:42:23.605Z,24.80
2022-07-28T22:44:51.727Z,24.80
2022-07-28T22:47:19.633Z,24.80
2022-07-28T22:49:47.648Z,24.80
2022-07-28T22:52:16.911Z,24.70
2022-07-28T22:54:44.850Z,24.70
2022-07-28T22:57:12.782Z,24.70
2022-07-28T22:59:40.636Z,24.70
2022-07-28T23:02:09.648Z,24.70
2022-07-28T23:04:39.528Z,24.70
2022-07-28T23:07:12.268Z,24.70
2022-07-28T23:09:43.034Z,24.70
2022-07-28T23:12:11.981Z,24.70
2022-07-28T23:14:40.090Z,24.70
2022-07-28T23:17:07.997Z,24.70
2022-07-28T23:19:35.935Z,24.60
2022-07-28T23:22:04.877Z,24.60
2022-07-28T23:24:32.766Z,24.60
2022-07-28T23:27:02.026Z,24.60
2022-07-28T23:29:29.894Z,24.50
2022-07-28T23:31:57.868Z,24.50
2022-07-28T23:34:25.753Z,24.50
2022-07-28T23:36:53.647Z,24.50
2022-07-28T23:39:21.591Z,24.50
2022-07-28T23:41:49.461Z,24.40
2022-07-28T23:44:19.318Z,24.40
2022-07-28T23:46:47.292Z,24.40
2022-07-28T23:49:15.571Z,24.40
2022-07-28T23:51:48.531Z,24.40
2022-07-28T23:54:17.385Z,24.40
2022-07-28T23:56:45.699Z,24.40
2022-07-28T23:59:14.665Z,24.40
